sensor_id;sensor_type;location;lat;lon;timestamp;P1;durP1;ratioP1;P2;durP2;ratioP2
55672;SDS011;41554;45.366;20.400;2022-12-19T00:03:47;94.10;;;60.50;;
55672;SDS011;41554;45.366;20.400;2022-12-19T00:06:13;101.63;;;64.63;;
55672;SDS011;41554;45.366;20.400;2022-12-19T00:08:40;107.63;;;67.20;;
55672;SDS011;41554;45.366;20.400;2022-12-19T00:11:07;104.43;;;70.53;;
55672;SDS011;41554;45.366;20.400;2022-12-19T00:13:34;111.97;;;69.22;;
55672;SDS011;41554;45.366;20.400;2022-12-19T00:16:01;110.25;;;67.68;;
55672;SDS011;41554;45.366;20.400;2022-12-19T00:18:27;115.00;;;67.53;;
55672;SDS011;41554;45.366;20.400;2022-12-19T00:21:00;103.10;;;60.88;;
55672;SDS011;41554;45.366;20.400;2022-12-19T00:23:28;107.13;;;67.80;;
55672;SDS011;41554;45.366;20.400;2022-12-19T00:26:04;105.78;;;64.15;;
55672;SDS011;41554;45.366;20.400;2022-12-19T00:28:31;110.18;;;63.35;;
55672;SDS011;41554;45.366;20.400;2022-12-19T00:30:58;104.40;;;62.67;;
55672;SDS011;41554;45.366;20.400;2022-12-19T00:33:25;100.35;;;65.63;;
55672;SDS011;41554;45.366;20.400;2022-12-19T00:35:55;106.75;;;63.80;;
55672;SDS011;41554;45.366;20.400;2022-12-19T00:38:25;114.43;;;67.15;;
55672;SDS011;41554;45.366;20.400;2022-12-19T00:40:51;94.38;;;65.13;;
55672;SDS011;41554;45.366;20.400;2022-12-19T00:43:17;105.70;;;69.32;;
55672;SDS011;41554;45.366;20.400;2022-12-19T00:45:43;124.40;;;74.78;;
55672;SDS011;41554;45.366;20.400;2022-12-19T00:48:08;110.72;;;71.90;;
55672;SDS011;41554;45.366;20.400;2022-12-19T00:50:34;118.40;;;76.15;;
55672;SDS011;41554;45.366;20.400;2022-12-19T00:53:00;114.82;;;71.10;;
55672;SDS011;41554;45.366;20.400;2022-12-19T00:55:25;112.95;;;70.05;;
55672;SDS011;41554;45.366;20.400;2022-12-19T00:57:51;98.47;;;65.15;;
55672;SDS011;41554;45.366;20.400;2022-12-19T01:00:17;123.75;;;76.20;;
55672;SDS011;41554;45.366;20.400;2022-12-19T01:02:43;109.55;;;73.45;;
55672;SDS011;41554;45.366;20.400;2022-12-19T01:05:09;122.13;;;79.07;;
55672;SDS011;41554;45.366;20.400;2022-12-19T01:07:35;115.72;;;66.40;;
55672;SDS011;41554;45.366;20.400;2022-12-19T01:10:01;106.35;;;66.18;;
55672;SDS011;41554;45.366;20.400;2022-12-19T01:12:27;105.63;;;70.53;;
55672;SDS011;41554;45.366;20.400;2022-12-19T01:15:12;105.88;;;62.03;;
55672;SDS011;41554;45.366;20.400;2022-12-19T01:17:43;100.78;;;61.50;;
55672;SDS011;41554;45.366;20.400;2022-12-19T01:20:09;118.68;;;73.28;;
55672;SDS011;41554;45.366;20.400;2022-12-19T01:22:35;105.05;;;65.00;;
55672;SDS011;41554;45.366;20.400;2022-12-19T01:25:01;120.55;;;68.90;;
55672;SDS011;41554;45.366;20.400;2022-12-19T01:27:27;107.72;;;67.22;;
55672;SDS011;41554;45.366;20.400;2022-12-19T01:29:52;104.15;;;65.97;;
55672;SDS011;41554;45.366;20.400;2022-12-19T01:32:19;99.70;;;65.38;;
55672;SDS011;41554;45.366;20.400;2022-12-19T01:34:45;99.30;;;66.70;;
55672;SDS011;41554;45.366;20.400;2022-12-19T01:37:11;113.40;;;72.43;;
55672;SDS011;41554;45.366;20.400;2022-12-19T01:39:36;95.05;;;59.35;;
55672;SDS011;41554;45.366;20.400;2022-12-19T01:42:02;93.13;;;57.13;;
55672;SDS011;41554;45.366;20.400;2022-12-19T01:44:30;114.45;;;63.22;;
55672;SDS011;41554;45.366;20.400;2022-12-19T01:46:56;112.88;;;67.40;;
55672;SDS011;41554;45.366;20.400;2022-12-19T01:49:27;100.13;;;58.45;;
55672;SDS011;41554;45.366;20.400;2022-12-19T01:51:57;93.60;;;58.53;;
55672;SDS011;41554;45.366;20.400;2022-12-19T01:54:26;71.50;;;51.40;;
55672;SDS011;41554;45.366;20.400;2022-12-19T01:56:56;84.35;;;51.80;;
55672;SDS011;41554;45.366;20.400;2022-12-19T02:01:53;89.43;;;54.65;;
55672;SDS011;41554;45.366;20.400;2022-12-19T02:04:25;85.47;;;51.50;;
55672;SDS011;41554;45.366;20.400;2022-12-19T02:06:53;93.10;;;50.42;;
55672;SDS011;41554;45.366;20.400;2022-12-19T02:09:20;73.45;;;51.85;;
55672;SDS011;41554;45.366;20.400;2022-12-19T02:11:45;78.78;;;49.60;;
55672;SDS011;41554;45.366;20.400;2022-12-19T02:14:11;79.50;;;46.85;;
55672;SDS011;41554;45.366;20.400;2022-12-19T02:16:49;87.43;;;53.63;;
55672;SDS011;41554;45.366;20.400;2022-12-19T02:21:54;81.38;;;49.05;;
55672;SDS011;41554;45.366;20.400;2022-12-19T02:30:01;76.97;;;46.88;;
55672;SDS011;41554;45.366;20.400;2022-12-19T02:37:35;79.03;;;42.13;;
55672;SDS011;41554;45.366;20.400;2022-12-19T02:42:52;84.38;;;47.30;;
55672;SDS011;41554;45.366;20.400;2022-12-19T02:45:24;69.70;;;43.83;;
55672;SDS011;41554;45.366;20.400;2022-12-19T02:47:54;72.85;;;45.47;;
55672;SDS011;41554;45.366;20.400;2022-12-19T02:50:22;74.85;;;48.05;;
55672;SDS011;41554;45.366;20.400;2022-12-19T02:52:48;90.55;;;50.15;;
55672;SDS011;41554;45.366;20.400;2022-12-19T02:55:15;76.45;;;39.15;;
55672;SDS011;41554;45.366;20.400;2022-12-19T03:00:24;70.85;;;41.28;;
55672;SDS011;41554;45.366;20.400;2022-12-19T03:11:10;84.85;;;46.88;;
55672;SDS011;41554;45.366;20.400;2022-12-19T03:16:15;65.88;;;42.55;;
55672;SDS011;41554;45.366;20.400;2022-12-19T03:18:40;83.07;;;49.08;;
55672;SDS011;41554;45.366;20.400;2022-12-19T03:21:14;71.72;;;42.78;;
55672;SDS011;41554;45.366;20.400;2022-12-19T03:23:58;78.75;;;44.60;;
55672;SDS011;41554;45.366;20.400;2022-12-19T03:26:26;84.85;;;46.70;;
55672;SDS011;41554;45.366;20.400;2022-12-19T03:31:23;82.55;;;51.08;;
55672;SDS011;41554;45.366;20.400;2022-12-19T03:33:57;64.30;;;38.93;;
55672;SDS011;41554;45.366;20.400;2022-12-19T03:36:29;85.97;;;55.33;;
55672;SDS011;41554;45.366;20.400;2022-12-19T03:39:03;79.63;;;53.35;;
55672;SDS011;41554;45.366;20.400;2022-12-19T03:41:31;81.13;;;54.38;;
55672;SDS011;41554;45.366;20.400;2022-12-19T03:44:16;92.28;;;55.65;;
55672;SDS011;41554;45.366;20.400;2022-12-19T03:47:21;93.65;;;53.33;;
55672;SDS011;41554;45.366;20.400;2022-12-19T03:49:45;87.63;;;52.88;;
55672;SDS011;41554;45.366;20.400;2022-12-19T03:57:40;98.35;;;52.92;;
55672;SDS011;41554;45.366;20.400;2022-12-19T04:00:11;83.38;;;54.58;;
55672;SDS011;41554;45.366;20.400;2022-12-19T04:02:40;88.68;;;53.00;;
55672;SDS011;41554;45.366;20.400;2022-12-19T04:05:09;85.50;;;53.72;;
55672;SDS011;41554;45.366;20.400;2022-12-19T04:07:39;87.10;;;49.40;;
55672;SDS011;41554;45.366;20.400;2022-12-19T04:10:10;87.32;;;52.25;;
55672;SDS011;41554;45.366;20.400;2022-12-19T04:12:40;89.50;;;52.88;;
55672;SDS011;41554;45.366;20.400;2022-12-19T04:15:11;87.65;;;52.55;;
55672;SDS011;41554;45.366;20.400;2022-12-19T04:17:49;83.13;;;51.25;;
55672;SDS011;41554;45.366;20.400;2022-12-19T04:20:23;88.85;;;51.50;;
55672;SDS011;41554;45.366;20.400;2022-12-19T04:22:51;89.68;;;53.80;;
55672;SDS011;41554;45.366;20.400;2022-12-19T04:25:21;94.80;;;59.35;;
55672;SDS011;41554;45.366;20.400;2022-12-19T04:27:55;90.50;;;56.13;;
55672;SDS011;41554;45.366;20.400;2022-12-19T04:30:24;88.55;;;57.80;;
55672;SDS011;41554;45.366;20.400;2022-12-19T04:32:50;96.78;;;55.00;;
55672;SDS011;41554;45.366;20.400;2022-12-19T04:35:15;100.80;;;60.40;;
55672;SDS011;41554;45.366;20.400;2022-12-19T04:37:41;88.22;;;56.03;;
55672;SDS011;41554;45.366;20.400;2022-12-19T04:40:08;92.57;;;55.40;;
55672;SDS011;41554;45.366;20.400;2022-12-19T04:42:34;95.65;;;55.38;;
55672;SDS011;41554;45.366;20.400;2022-12-19T04:45:00;95.90;;;54.22;;
55672;SDS011;41554;45.366;20.400;2022-12-19T04:47:27;101.13;;;59.50;;
55672;SDS011;41554;45.366;20.400;2022-12-19T04:49:53;95.68;;;53.63;;
55672;SDS011;41554;45.366;20.400;2022-12-19T04:52:18;82.63;;;50.80;;
55672;SDS011;41554;45.366;20.400;2022-12-19T04:54:44;93.78;;;54.45;;
55672;SDS011;41554;45.366;20.400;2022-12-19T04:57:10;104.03;;;54.17;;
55672;SDS011;41554;45.366;20.400;2022-12-19T04:59:36;85.63;;;50.85;;
55672;SDS011;41554;45.366;20.400;2022-12-19T05:02:01;83.65;;;50.10;;
55672;SDS011;41554;45.366;20.400;2022-12-19T05:04:27;93.82;;;51.72;;
55672;SDS011;41554;45.366;20.400;2022-12-19T05:06:53;97.22;;;58.00;;
55672;SDS011;41554;45.366;20.400;2022-12-19T05:09:18;81.65;;;52.03;;
55672;SDS011;41554;45.366;20.400;2022-12-19T05:11:44;87.35;;;55.42;;
55672;SDS011;41554;45.366;20.400;2022-12-19T05:14:10;95.13;;;53.08;;
55672;SDS011;41554;45.366;20.400;2022-12-19T05:16:36;91.65;;;52.67;;
55672;SDS011;41554;45.366;20.400;2022-12-19T05:19:02;81.22;;;52.15;;
55672;SDS011;41554;45.366;20.400;2022-12-19T05:21:27;87.60;;;49.55;;
55672;SDS011;41554;45.366;20.400;2022-12-19T05:23:53;91.50;;;56.72;;
55672;SDS011;41554;45.366;20.400;2022-12-19T05:26:19;72.75;;;48.10;;
55672;SDS011;41554;45.366;20.400;2022-12-19T05:28:45;83.10;;;44.90;;
55672;SDS011;41554;45.366;20.400;2022-12-19T05:31:12;92.07;;;55.08;;
55672;SDS011;41554;45.366;20.400;2022-12-19T05:33:40;80.65;;;48.90;;
55672;SDS011;41554;45.366;20.400;2022-12-19T05:36:07;78.00;;;48.88;;
55672;SDS011;41554;45.366;20.400;2022-12-19T05:38:34;83.05;;;46.42;;
55672;SDS011;41554;45.366;20.400;2022-12-19T05:41:05;84.45;;;47.45;;
55672;SDS011;41554;45.366;20.400;2022-12-19T05:43:37;127.28;;;77.00;;
55672;SDS011;41554;45.366;20.400;2022-12-19T05:46:04;100.38;;;70.10;;
55672;SDS011;41554;45.366;20.400;2022-12-19T05:48:30;100.30;;;62.40;;
55672;SDS011;41554;45.366;20.400;2022-12-19T05:50:56;106.85;;;63.25;;
55672;SDS011;41554;45.366;20.400;2022-12-19T05:53:22;109.82;;;66.43;;
55672;SDS011;41554;45.366;20.400;2022-12-19T05:55:48;118.78;;;72.18;;
55672;SDS011;41554;45.366;20.400;2022-12-19T05:58:14;107.63;;;71.75;;
55672;SDS011;41554;45.366;20.400;2022-12-19T06:00:40;109.20;;;75.57;;
55672;SDS011;41554;45.366;20.400;2022-12-19T06:03:06;114.68;;;72.85;;
55672;SDS011;41554;45.366;20.400;2022-12-19T06:05:35;111.55;;;64.70;;
55672;SDS011;41554;45.366;20.400;2022-12-19T06:08:01;87.07;;;53.55;;
55672;SDS011;41554;45.366;20.400;2022-12-19T06:10:27;89.50;;;52.80;;
55672;SDS011;41554;45.366;20.400;2022-12-19T06:12:53;88.75;;;52.55;;
55672;SDS011;41554;45.366;20.400;2022-12-19T06:15:18;72.53;;;48.78;;
55672;SDS011;41554;45.366;20.400;2022-12-19T06:17:46;83.70;;;48.70;;
55672;SDS011;41554;45.366;20.400;2022-12-19T06:20:12;71.45;;;44.08;;
55672;SDS011;41554;45.366;20.400;2022-12-19T06:22:38;72.32;;;44.38;;
55672;SDS011;41554;45.366;20.400;2022-12-19T06:25:04;97.78;;;47.45;;
55672;SDS011;41554;45.366;20.400;2022-12-19T06:27:30;73.28;;;44.72;;
55672;SDS011;41554;45.366;20.400;2022-12-19T06:29:55;72.50;;;47.50;;
55672;SDS011;41554;45.366;20.400;2022-12-19T06:32:21;67.80;;;43.05;;
55672;SDS011;41554;45.366;20.400;2022-12-19T06:34:46;75.65;;;41.40;;
55672;SDS011;41554;45.366;20.400;2022-12-19T06:37:12;80.75;;;44.17;;
55672;SDS011;41554;45.366;20.400;2022-12-19T06:39:38;81.00;;;40.88;;
55672;SDS011;41554;45.366;20.400;2022-12-19T06:42:03;68.80;;;44.22;;
55672;SDS011;41554;45.366;20.400;2022-12-19T06:44:47;71.65;;;42.47;;
55672;SDS011;41554;45.366;20.400;2022-12-19T06:47:18;45.92;;;30.08;;
55672;SDS011;41554;45.366;20.400;2022-12-19T06:49:44;61.50;;;40.30;;
55672;SDS011;41554;45.366;20.400;2022-12-19T06:52:13;75.63;;;44.53;;
55672;SDS011;41554;45.366;20.400;2022-12-19T06:54:39;72.45;;;46.28;;
55672;SDS011;41554;45.366;20.400;2022-12-19T06:57:05;72.88;;;39.13;;
55672;SDS011;41554;45.366;20.400;2022-12-19T06:59:31;75.88;;;41.78;;
55672;SDS011;41554;45.366;20.400;2022-12-19T07:04:31;81.53;;;47.72;;
55672;SDS011;41554;45.366;20.400;2022-12-19T07:06:59;67.40;;;42.17;;
55672;SDS011;41554;45.366;20.400;2022-12-19T07:09:26;62.70;;;38.75;;
55672;SDS011;41554;45.366;20.400;2022-12-19T07:11:53;63.38;;;35.78;;
55672;SDS011;41554;45.366;20.400;2022-12-19T07:14:18;57.22;;;37.28;;
55672;SDS011;41554;45.366;20.400;2022-12-19T07:16:44;67.80;;;39.58;;
55672;SDS011;41554;45.366;20.400;2022-12-19T07:19:11;59.30;;;37.88;;
55672;SDS011;41554;45.366;20.400;2022-12-19T07:21:38;53.05;;;37.25;;
55672;SDS011;41554;45.366;20.400;2022-12-19T07:24:04;70.95;;;40.65;;
55672;SDS011;41554;45.366;20.400;2022-12-19T07:26:31;62.85;;;35.63;;
55672;SDS011;41554;45.366;20.400;2022-12-19T07:28:57;61.90;;;34.42;;
55672;SDS011;41554;45.366;20.400;2022-12-19T07:31:23;70.25;;;41.20;;
55672;SDS011;41554;45.366;20.400;2022-12-19T07:33:49;63.97;;;42.80;;
55672;SDS011;41554;45.366;20.400;2022-12-19T07:36:15;60.85;;;41.15;;
55672;SDS011;41554;45.366;20.400;2022-12-19T07:38:40;71.50;;;45.70;;
55672;SDS011;41554;45.366;20.400;2022-12-19T07:41:06;77.10;;;47.83;;
55672;SDS011;41554;45.366;20.400;2022-12-19T07:43:32;89.05;;;48.15;;
55672;SDS011;41554;45.366;20.400;2022-12-19T07:45:58;73.82;;;43.85;;
55672;SDS011;41554;45.366;20.400;2022-12-19T07:48:23;75.28;;;47.22;;
55672;SDS011;41554;45.366;20.400;2022-12-19T07:50:49;64.95;;;40.63;;
55672;SDS011;41554;45.366;20.400;2022-12-19T07:53:15;72.53;;;41.97;;
55672;SDS011;41554;45.366;20.400;2022-12-19T07:55:41;62.28;;;38.80;;
55672;SDS011;41554;45.366;20.400;2022-12-19T07:58:07;58.28;;;38.95;;
55672;SDS011;41554;45.366;20.400;2022-12-19T08:00:36;85.30;;;51.50;;
55672;SDS011;41554;45.366;20.400;2022-12-19T08:03:01;86.75;;;50.47;;
55672;SDS011;41554;45.366;20.400;2022-12-19T08:05:28;92.60;;;53.88;;
55672;SDS011;41554;45.366;20.400;2022-12-19T08:07:54;121.60;;;67.47;;
55672;SDS011;41554;45.366;20.400;2022-12-19T08:10:20;108.28;;;69.38;;
55672;SDS011;41554;45.366;20.400;2022-12-19T08:12:47;109.60;;;69.28;;
55672;SDS011;41554;45.366;20.400;2022-12-19T08:15:13;91.80;;;56.78;;
55672;SDS011;41554;45.366;20.400;2022-12-19T08:17:39;101.43;;;64.55;;
55672;SDS011;41554;45.366;20.400;2022-12-19T08:20:06;105.68;;;66.03;;
55672;SDS011;41554;45.366;20.400;2022-12-19T08:22:32;100.60;;;58.55;;
55672;SDS011;41554;45.366;20.400;2022-12-19T08:24:58;81.47;;;50.63;;
55672;SDS011;41554;45.366;20.400;2022-12-19T08:27:25;71.60;;;44.85;;
55672;SDS011;41554;45.366;20.400;2022-12-19T08:29:51;58.25;;;38.25;;
55672;SDS011;41554;45.366;20.400;2022-12-19T08:32:17;58.97;;;37.83;;
55672;SDS011;41554;45.366;20.400;2022-12-19T08:34:43;58.55;;;38.90;;
55672;SDS011;41554;45.366;20.400;2022-12-19T08:37:09;56.85;;;36.45;;
55672;SDS011;41554;45.366;20.400;2022-12-19T08:39:35;58.40;;;38.72;;
55672;SDS011;41554;45.366;20.400;2022-12-19T08:42:01;79.30;;;41.22;;
55672;SDS011;41554;45.366;20.400;2022-12-19T08:44:27;64.85;;;37.38;;
55672;SDS011;41554;45.366;20.400;2022-12-19T08:46:53;65.03;;;41.63;;
55672;SDS011;41554;45.366;20.400;2022-12-19T08:49:18;57.35;;;37.30;;
55672;SDS011;41554;45.366;20.400;2022-12-19T08:51:44;63.22;;;39.35;;
55672;SDS011;41554;45.366;20.400;2022-12-19T08:54:10;59.72;;;40.13;;
55672;SDS011;41554;45.366;20.400;2022-12-19T08:56:36;69.10;;;43.05;;
55672;SDS011;41554;45.366;20.400;2022-12-19T08:59:03;79.20;;;46.55;;
55672;SDS011;41554;45.366;20.400;2022-12-19T09:01:29;62.80;;;43.13;;
55672;SDS011;41554;45.366;20.400;2022-12-19T09:03:58;69.20;;;45.70;;
55672;SDS011;41554;45.366;20.400;2022-12-19T09:06:24;70.78;;;44.03;;
55672;SDS011;41554;45.366;20.400;2022-12-19T09:08:50;78.30;;;46.45;;
55672;SDS011;41554;45.366;20.400;2022-12-19T09:11:18;68.20;;;47.50;;
55672;SDS011;41554;45.366;20.400;2022-12-19T09:13:44;74.90;;;45.03;;
55672;SDS011;41554;45.366;20.400;2022-12-19T09:16:14;81.70;;;51.55;;
55672;SDS011;41554;45.366;20.400;2022-12-19T09:18:41;74.82;;;47.70;;
55672;SDS011;41554;45.366;20.400;2022-12-19T09:21:08;73.10;;;50.58;;
55672;SDS011;41554;45.366;20.400;2022-12-19T09:23:35;66.97;;;43.85;;
55672;SDS011;41554;45.366;20.400;2022-12-19T09:26:08;72.63;;;44.80;;
55672;SDS011;41554;45.366;20.400;2022-12-19T09:28:35;70.90;;;40.60;;
55672;SDS011;41554;45.366;20.400;2022-12-19T09:31:05;70.43;;;42.72;;
55672;SDS011;41554;45.366;20.400;2022-12-19T09:33:32;59.50;;;40.30;;
55672;SDS011;41554;45.366;20.400;2022-12-19T09:35:59;53.75;;;37.78;;
55672;SDS011;41554;45.366;20.400;2022-12-19T09:38:26;56.92;;;37.58;;
55672;SDS011;41554;45.366;20.400;2022-12-19T09:48:29;59.80;;;37.75;;
55672;SDS011;41554;45.366;20.400;2022-12-19T09:50:57;67.70;;;38.63;;
55672;SDS011;41554;45.366;20.400;2022-12-19T09:53:31;68.22;;;39.90;;
55672;SDS011;41554;45.366;20.400;2022-12-19T09:55:58;59.22;;;40.45;;
55672;SDS011;41554;45.366;20.400;2022-12-19T09:58:34;58.60;;;33.72;;
55672;SDS011;41554;45.366;20.400;2022-12-19T10:01:04;52.30;;;40.22;;
55672;SDS011;41554;45.366;20.400;2022-12-19T10:03:34;64.95;;;39.53;;
55672;SDS011;41554;45.366;20.400;2022-12-19T10:06:06;57.83;;;36.87;;
55672;SDS011;41554;45.366;20.400;2022-12-19T10:08:33;64.35;;;38.72;;
55672;SDS011;41554;45.366;20.400;2022-12-19T10:11:06;54.17;;;34.58;;
55672;SDS011;41554;45.366;20.400;2022-12-19T10:21:23;53.13;;;37.15;;
55672;SDS011;41554;45.366;20.400;2022-12-19T10:23:54;53.53;;;35.50;;
55672;SDS011;41554;45.366;20.400;2022-12-19T10:26:25;60.78;;;35.35;;
55672;SDS011;41554;45.366;20.400;2022-12-19T10:29:15;60.38;;;40.50;;
55672;SDS011;41554;45.366;20.400;2022-12-19T10:34:36;52.92;;;35.42;;
55672;SDS011;41554;45.366;20.400;2022-12-19T10:37:26;58.65;;;34.80;;
55672;SDS011;41554;45.366;20.400;2022-12-19T10:40:10;53.35;;;32.80;;
55672;SDS011;41554;45.366;20.400;2022-12-19T10:45:13;54.78;;;35.22;;
55672;SDS011;41554;45.366;20.400;2022-12-19T10:47:40;60.20;;;34.08;;
55672;SDS011;41554;45.366;20.400;2022-12-19T10:50:10;46.75;;;33.63;;
55672;SDS011;41554;45.366;20.400;2022-12-19T10:55:09;58.03;;;34.30;;
55672;SDS011;41554;45.366;20.400;2022-12-19T10:57:44;56.25;;;32.67;;
55672;SDS011;41554;45.366;20.400;2022-12-19T11:00:14;58.92;;;34.60;;
55672;SDS011;41554;45.366;20.400;2022-12-19T11:02:43;60.33;;;36.28;;
55672;SDS011;41554;45.366;20.400;2022-12-19T11:15:53;43.58;;;30.80;;
55672;SDS011;41554;45.366;20.400;2022-12-19T11:18:20;42.17;;;28.92;;
55672;SDS011;41554;45.366;20.400;2022-12-19T11:23:25;38.10;;;21.48;;
55672;SDS011;41554;45.366;20.400;2022-12-19T11:26:01;48.35;;;27.80;;
55672;SDS011;41554;45.366;20.400;2022-12-19T11:30:56;49.63;;;28.63;;
55672;SDS011;41554;45.366;20.400;2022-12-19T11:33:22;42.70;;;26.35;;
55672;SDS011;41554;45.366;20.400;2022-12-19T11:38:15;38.60;;;25.08;;
55672;SDS011;41554;45.366;20.400;2022-12-19T11:40:47;42.03;;;24.92;;
55672;SDS011;41554;45.366;20.400;2022-12-19T11:43:24;42.65;;;27.85;;
55672;SDS011;41554;45.366;20.400;2022-12-19T11:46:06;39.03;;;25.40;;
55672;SDS011;41554;45.366;20.400;2022-12-19T11:56:22;46.45;;;25.38;;
55672;SDS011;41554;45.366;20.400;2022-12-19T11:58:50;45.45;;;29.52;;
55672;SDS011;41554;45.366;20.400;2022-12-19T12:06:16;44.08;;;28.58;;
55672;SDS011;41554;45.366;20.400;2022-12-19T12:14:01;45.08;;;29.77;;
55672;SDS011;41554;45.366;20.400;2022-12-19T12:16:53;49.03;;;32.05;;
55672;SDS011;41554;45.366;20.400;2022-12-19T12:30:16;53.83;;;29.58;;
55672;SDS011;41554;45.366;20.400;2022-12-19T12:37:27;52.58;;;31.15;;
55672;SDS011;41554;45.366;20.400;2022-12-19T12:45:12;60.50;;;33.92;;
55672;SDS011;41554;45.366;20.400;2022-12-19T12:47:52;54.17;;;34.00;;
55672;SDS011;41554;45.366;20.400;2022-12-19T12:50:20;51.53;;;35.00;;
55672;SDS011;41554;45.366;20.400;2022-12-19T12:52:58;48.53;;;34.08;;
55672;SDS011;41554;45.366;20.400;2022-12-19T12:57:58;68.13;;;36.78;;
55672;SDS011;41554;45.366;20.400;2022-12-19T13:00:25;48.53;;;34.30;;
55672;SDS011;41554;45.366;20.400;2022-12-19T13:08:24;75.82;;;34.85;;
55672;SDS011;41554;45.366;20.400;2022-12-19T13:11:00;52.17;;;34.85;;
55672;SDS011;41554;45.366;20.400;2022-12-19T13:13:47;78.85;;;38.55;;
55672;SDS011;41554;45.366;20.400;2022-12-19T13:19:15;66.00;;;35.05;;
55672;SDS011;41554;45.366;20.400;2022-12-19T13:24:39;47.58;;;26.42;;
55672;SDS011;41554;45.366;20.400;2022-12-19T13:40:01;46.58;;;25.88;;
55672;SDS011;41554;45.366;20.400;2022-12-19T13:42:32;41.72;;;22.40;;
55672;SDS011;41554;45.366;20.400;2022-12-19T13:45:38;47.95;;;28.40;;
55672;SDS011;41554;45.366;20.400;2022-12-19T13:48:05;43.65;;;28.98;;
55672;SDS011;41554;45.366;20.400;2022-12-19T13:50:35;39.97;;;29.75;;
55672;SDS011;41554;45.366;20.400;2022-12-19T13:53:08;50.47;;;28.38;;
55672;SDS011;41554;45.366;20.400;2022-12-19T13:55:34;48.63;;;28.90;;
55672;SDS011;41554;45.366;20.400;2022-12-19T13:58:04;50.17;;;28.33;;
55672;SDS011;41554;45.366;20.400;2022-12-19T14:00:32;46.53;;;29.40;;
55672;SDS011;41554;45.366;20.400;2022-12-19T14:02:59;44.90;;;27.55;;
55672;SDS011;41554;45.366;20.400;2022-12-19T14:05:28;55.10;;;27.40;;
55672;SDS011;41554;45.366;20.400;2022-12-19T14:07:55;47.03;;;28.35;;
55672;SDS011;41554;45.366;20.400;2022-12-19T14:10:27;57.90;;;32.83;;
55672;SDS011;41554;45.366;20.400;2022-12-19T14:12:54;44.20;;;27.00;;
55672;SDS011;41554;45.366;20.400;2022-12-19T14:15:43;33.78;;;22.50;;
55672;SDS011;41554;45.366;20.400;2022-12-19T14:20:38;46.75;;;26.33;;
55672;SDS011;41554;45.366;20.400;2022-12-19T14:23:04;41.17;;;26.13;;
55672;SDS011;41554;45.366;20.400;2022-12-19T14:25:41;39.65;;;30.00;;
55672;SDS011;41554;45.366;20.400;2022-12-19T14:28:13;51.53;;;32.15;;
55672;SDS011;41554;45.366;20.400;2022-12-19T14:30:44;47.38;;;26.80;;
55672;SDS011;41554;45.366;20.400;2022-12-19T14:33:15;50.17;;;29.15;;
55672;SDS011;41554;45.366;20.400;2022-12-19T14:35:48;46.88;;;28.55;;
55672;SDS011;41554;45.366;20.400;2022-12-19T14:38:23;38.20;;;26.80;;
55672;SDS011;41554;45.366;20.400;2022-12-19T14:40:52;46.92;;;29.67;;
55672;SDS011;41554;45.366;20.400;2022-12-19T14:43:22;48.25;;;25.00;;
55672;SDS011;41554;45.366;20.400;2022-12-19T14:51:12;59.42;;;30.23;;
55672;SDS011;41554;45.366;20.400;2022-12-19T14:53:39;48.70;;;28.65;;
55672;SDS011;41554;45.366;20.400;2022-12-19T14:56:12;34.75;;;26.50;;
55672;SDS011;41554;45.366;20.400;2022-12-19T14:58:39;82.55;;;34.10;;
55672;SDS011;41554;45.366;20.400;2022-12-19T15:01:38;48.03;;;30.35;;
55672;SDS011;41554;45.366;20.400;2022-12-19T15:06:27;47.50;;;29.83;;
55672;SDS011;41554;45.366;20.400;2022-12-19T15:08:59;45.97;;;30.50;;
55672;SDS011;41554;45.366;20.400;2022-12-19T15:11:27;48.75;;;25.63;;
55672;SDS011;41554;45.366;20.400;2022-12-19T15:14:12;50.00;;;31.25;;
55672;SDS011;41554;45.366;20.400;2022-12-19T15:16:38;39.50;;;26.25;;
55672;SDS011;41554;45.366;20.400;2022-12-19T15:19:09;42.25;;;25.50;;
55672;SDS011;41554;45.366;20.400;2022-12-19T15:21:35;60.75;;;28.05;;
55672;SDS011;41554;45.366;20.400;2022-12-19T15:24:01;55.78;;;27.38;;
55672;SDS011;41554;45.366;20.400;2022-12-19T15:26:29;45.70;;;28.63;;
55672;SDS011;41554;45.366;20.400;2022-12-19T15:28:55;42.35;;;29.50;;
55672;SDS011;41554;45.366;20.400;2022-12-19T15:33:54;49.67;;;27.67;;
55672;SDS011;41554;45.366;20.400;2022-12-19T15:36:20;56.35;;;30.75;;
55672;SDS011;41554;45.366;20.400;2022-12-19T15:38:47;51.47;;;26.00;;
55672;SDS011;41554;45.366;20.400;2022-12-19T15:41:14;44.13;;;28.30;;
55672;SDS011;41554;45.366;20.400;2022-12-19T15:43:41;41.90;;;27.17;;
55672;SDS011;41554;45.366;20.400;2022-12-19T15:46:08;45.75;;;27.83;;
55672;SDS011;41554;45.366;20.400;2022-12-19T15:48:36;43.08;;;29.17;;
55672;SDS011;41554;45.366;20.400;2022-12-19T15:51:04;34.25;;;26.15;;
55672;SDS011;41554;45.366;20.400;2022-12-19T15:53:30;42.72;;;24.00;;
55672;SDS011;41554;45.366;20.400;2022-12-19T15:55:57;43.30;;;24.90;;
55672;SDS011;41554;45.366;20.400;2022-12-19T15:58:24;41.17;;;25.95;;
55672;SDS011;41554;45.366;20.400;2022-12-19T16:00:56;36.47;;;24.50;;
55672;SDS011;41554;45.366;20.400;2022-12-19T16:03:22;35.08;;;24.35;;
55672;SDS011;41554;45.366;20.400;2022-12-19T16:05:49;37.25;;;24.25;;
55672;SDS011;41554;45.366;20.400;2022-12-19T16:08:17;41.17;;;24.42;;
55672;SDS011;41554;45.366;20.400;2022-12-19T16:10:46;41.78;;;25.08;;
55672;SDS011;41554;45.366;20.400;2022-12-19T16:13:33;40.22;;;23.95;;
55672;SDS011;41554;45.366;20.400;2022-12-19T16:15:59;34.38;;;22.58;;
55672;SDS011;41554;45.366;20.400;2022-12-19T16:18:25;34.47;;;22.50;;
55672;SDS011;41554;45.366;20.400;2022-12-19T16:20:51;38.97;;;25.73;;
55672;SDS011;41554;45.366;20.400;2022-12-19T16:23:17;36.35;;;25.27;;
55672;SDS011;41554;45.366;20.400;2022-12-19T16:25:47;32.38;;;20.95;;
55672;SDS011;41554;45.366;20.400;2022-12-19T16:28:18;36.85;;;20.23;;
55672;SDS011;41554;45.366;20.400;2022-12-19T16:30:44;33.65;;;22.13;;
55672;SDS011;41554;45.366;20.400;2022-12-19T16:33:21;29.95;;;21.00;;
55672;SDS011;41554;45.366;20.400;2022-12-19T16:35:48;31.27;;;22.20;;
55672;SDS011;41554;45.366;20.400;2022-12-19T16:38:15;25.90;;;19.15;;
55672;SDS011;41554;45.366;20.400;2022-12-19T16:40:41;24.38;;;16.45;;
55672;SDS011;41554;45.366;20.400;2022-12-19T16:45:43;27.65;;;16.00;;
55672;SDS011;41554;45.366;20.400;2022-12-19T16:48:15;36.80;;;19.48;;
55672;SDS011;41554;45.366;20.400;2022-12-19T16:50:42;23.85;;;15.82;;
55672;SDS011;41554;45.366;20.400;2022-12-19T16:53:08;33.92;;;17.45;;
55672;SDS011;41554;45.366;20.400;2022-12-19T16:55:34;28.98;;;16.13;;
55672;SDS011;41554;45.366;20.400;2022-12-19T16:58:00;27.13;;;14.75;;
55672;SDS011;41554;45.366;20.400;2022-12-19T17:00:26;24.20;;;17.70;;
55672;SDS011;41554;45.366;20.400;2022-12-19T17:02:53;23.30;;;15.13;;